GMT,Max TemperatureF,Mean TemperatureF,Min TemperatureF,Max Dew PointF,MeanDew PointF,Min DewpointF,Max Humidity, Mean Humidity, Min Humidity, Max Sea Level PressureIn, Mean Sea Level PressureIn, Min Sea Level PressureIn, Max VisibilityMiles, Mean VisibilityMiles, Min VisibilityMiles, Max Wind SpeedMPH, Mean Wind SpeedMPH, Max Gust SpeedMPH,PrecipitationIn, CloudCover, Events, WindDirDegrees
2014-2-1,47,42,36,40,36,30,87,70,48,29.51,29.29,29.10,12,6,2,30,18,54,0.08,5,Rain-Hail,263
2014-2-2,50,46,41,46,40,32,93,76,51,29.77,29.67,29.52,14,8,6,21,16,38,0.02,4,Rain,236
2014-2-3,48,44,41,46,44,39,100,92,79,29.59,29.37,29.24,12,6,3,26,19,50,0.43,7,Rain,204
2014-2-4,49,45,41,45,41,35,100,81,53,29.42,29.15,28.68,14,8,2,37,21,68,0.28,5,Rain,196
2014-2-5,50,46,42,45,41,37,93,77,57,29.33,28.86,28.50,10,6,1,38,27,71,0.24,6,Rain,244
2014-2-6,50,46,41,48,42,35,100,83,58,29.37,29.10,28.85,12,7,2,23,15,41,0.20,7,Rain,177
2014-2-7,49,45,41,48,39,34,100,76,57,29.47,29.24,28.91,12,7,2,31,19,56,0.02,6,Rain,249
2014-2-8,47,44,40,45,37,32,87,66,49,28.98,28.86,28.77,11,6,2,41,29,68,0.12,6,Rain-Hail,245
2014-2-9,46,42,38,38,35,29,81,68,44,29.25,29.17,29.00,12,7,4,31,22,60,0.02,5,Rain-Hail,261
2014-2-10,47,44,40,41,38,34,93,77,60,29.64,29.39,29.15,16,8,2,31,16,43,0.04,4,Rain,284
2014-2-11,48,44,39,45,39,36,99,81,61,29.62,29.44,29.18,16,6,2,30,21,55,0.02,5,Rain-Snow-Thunderstorm,271
2014-2-12,49,44,38,47,41,34,100,81,56,29.62,29.29,29.03,10,6,2,38,24,70,0.28,5,Rain-Hail-Thunderstorm,246
2014-2-13,45,40,36,39,37,34,94,82,60,29.55,29.38,29.21,12,7,2,25,15,51,0.12,6,Rain-Hail,274
2014-2-14,53,46,39,52,44,37,100,87,68,29.52,28.96,28.56,12,4,1,47,22,74,0.35,7,Rain,199
2014-2-15,50,46,41,45,42,39,93,82,70,29.71,29.36,28.95,12,7,3,31,21,64,0.01,4,Rain,279
2014-2-16,49,41,33,45,40,31,100,85,64,29.79,29.71,29.56,12,8,3,16,7,30,0.02,4,Rain,227
2014-2-17,50,47,44,48,46,43,100,91,77,29.71,29.56,29.47,11,5,1,23,16,45,0.16,6,Rain,201
2014-2-18,51,48,44,48,46,43,100,93,78,29.89,29.78,29.71,16,6,0,12,8,,0.04,4,Fog-Rain,239
2014-2-19,50,47,44,50,48,44,100,97,86,29.94,29.86,29.68,9,3,0,21,10,32,0.04,8,Fog-Rain,236
2014-2-20,50,46,42,50,44,36,100,86,67,29.70,29.58,29.50,12,5,0,25,17,46,0.04,5,Fog-Rain,258
2014-2-21,48,44,41,43,39,35,87,76,61,29.73,29.69,29.65,16,8,4,21,15,38,0.03,3,Rain,265
2014-2-22,50,46,41,48,43,39,94,81,66,29.88,29.80,29.73,19,8,4,23,13,40,0.00,5,Rain,241
2014-2-23,52,50,48,50,48,46,94,87,77,29.76,29.68,29.59,7,5,4,33,23,50,0.00,8,Rain,202
2014-2-24,51,48,45,48,46,44,100,91,78,29.65,29.54,29.39,12,7,2,26,16,48,0.04,6,Rain,216
2014-2-25,48,45,42,45,41,37,93,81,61,29.74,29.50,29.36,12,8,3,22,17,37,0.00,3,Rain,251
2014-2-26,49,46,42,46,39,36,100,74,59,30.04,29.92,29.71,11,7,2,25,13,45,0.01,5,Rain,250
2014-2-27,48,45,42,48,41,37,100,78,61,29.85,29.76,29.44,11,6,2,26,19,46,0.04,4,Rain,272
2014-2-28,47,44,40,41,37,34,94,75,52,29.79,29.56,29.18,16,7,2,34,23,63,0.51,5,Rain,316